createdAt,value
2023-02-28T00:00:19.798Z,13.40
2023-02-28T00:02:53.794Z,13.80
2023-02-28T00:05:26.799Z,13.90
2023-02-28T00:07:58.657Z,13.60
2023-02-28T00:10:33.915Z,13.60
2023-02-28T00:13:06.720Z,14.10
2023-02-28T00:15:38.102Z,14.30
2023-02-28T00:18:08.985Z,14.40
2023-02-28T00:20:39.776Z,15.10
2023-02-28T00:23:10.516Z,15.10
2023-02-28T00:25:43.890Z,15.20
2023-02-28T00:28:14.583Z,14.60
2023-02-28T00:30:45.655Z,14.80
2023-02-28T00:33:19.545Z,15.80
2023-02-28T00:35:50.333Z,15.90
2023-02-28T00:38:21.235Z,16.10
2023-02-28T00:40:54.777Z,15.50
2023-02-28T00:43:25.547Z,15.60
2023-02-28T00:45:56.458Z,15.90
2023-02-28T00:48:27.253Z,16.20
2023-02-28T00:50:58.247Z,16.00
2023-02-28T00:53:29.173Z,16.60
2023-02-28T00:56:03.275Z,16.90
2023-02-28T00:58:35.477Z,16.50
2023-02-28T01:01:12.271Z,16.80
2023-02-28T01:03:46.765Z,17.30
2023-02-28T01:06:17.493Z,17.60
2023-02-28T01:08:48.341Z,17.40
2023-02-28T01:11:23.717Z,17.10
2023-02-28T01:13:55.250Z,17.80
2023-02-28T01:16:26.263Z,17.50
2023-02-28T01:18:57.053Z,17.90
2023-02-28T01:21:28.319Z,17.80
2023-02-28T01:24:01.113Z,17.90
2023-02-28T01:26:35.268Z,18.10
2023-02-28T01:29:06.129Z,18.00
2023-02-28T01:31:37.472Z,18.00
2023-02-28T01:34:08.449Z,17.70
2023-02-28T01:36:39.674Z,18.50
2023-02-28T01:39:10.407Z,18.00
2023-02-28T01:41:46.227Z,18.40
2023-02-28T01:44:47.078Z,19.10
2023-02-28T01:47:18.390Z,19.90
2023-02-28T01:49:49.599Z,18.10
2023-02-28T01:52:20.321Z,19.00
2023-02-28T01:54:54.617Z,18.80
2023-02-28T01:57:32.226Z,19.40
2023-02-28T02:00:08.471Z,18.90
2023-02-28T02:02:40.981Z,18.20
2023-02-28T02:05:15.684Z,18.10
2023-02-28T02:07:52.292Z,18.90
2023-02-28T02:10:26.476Z,18.50
2023-02-28T02:13:22.098Z,19.20
2023-02-28T02:16:04.146Z,18.50
2023-02-28T02:18:41.368Z,20.00
2023-02-28T02:21:41.765Z,19.00
2023-02-28T02:24:53.186Z,19.30
2023-02-28T02:27:29.215Z,19.60
2023-02-28T02:30:50.478Z,18.90
2023-02-28T02:34:05.096Z,20.50
2023-02-28T02:36:49.042Z,19.80
2023-02-28T02:39:28.807Z,20.50
2023-02-28T02:42:04.945Z,20.90
2023-02-28T02:44:41.325Z,21.60
2023-02-28T02:47:15.628Z,20.90
2023-02-28T02:49:51.474Z,21.70
2023-02-28T02:52:28.565Z,21.90
2023-02-28T02:55:01.840Z,20.90
2023-02-28T02:57:39.171Z,20.70
2023-02-28T03:00:12.599Z,21.80
2023-02-28T03:02:44.915Z,21.50
2023-02-28T03:05:21.576Z,21.40
2023-02-28T03:07:54.880Z,22.30
2023-02-28T03:10:35.387Z,21.80
2023-02-28T03:13:39.136Z,21.40
2023-02-28T03:16:29.033Z,21.60
2023-02-28T03:19:26.726Z,21.40
2023-02-28T03:22:14.593Z,20.90
2023-02-28T03:24:53.477Z,20.40
2023-02-28T03:27:29.886Z,21.60
2023-02-28T03:30:06.932Z,20.10
2023-02-28T03:32:44.715Z,20.50
2023-02-28T03:35:23.108Z,20.20
2023-02-28T03:37:57.884Z,20.00
2023-02-28T03:40:36.875Z,19.80
2023-02-28T03:43:14.687Z,20.20
2023-02-28T03:45:47.255Z,20.70
2023-02-28T03:48:23.624Z,20.80
2023-02-28T03:50:58.030Z,21.00
2023-02-28T03:53:44.591Z,21.20
2023-02-28T03:56:21.652Z,21.20
2023-02-28T03:58:57.676Z,21.50
2023-02-28T04:01:34.146Z,22.20
2023-02-28T04:04:05.296Z,21.40
2023-02-28T04:06:38.283Z,22.20
2023-02-28T04:11:45.616Z,21.80
2023-02-28T04:14:16.604Z,21.40
2023-02-28T04:16:50.805Z,22.10
2023-02-28T04:19:21.923Z,22.40
2023-02-28T04:21:54.481Z,21.80
2023-02-28T04:24:27.027Z,21.40
2023-02-28T04:27:02.056Z,21.60
2023-02-28T04:29:35.709Z,21.90
2023-02-28T04:32:07.127Z,22.20
2023-02-28T04:34:37.932Z,20.30
2023-02-28T04:37:13.600Z,22.20
2023-02-28T04:39:45.894Z,23.10
2023-02-28T04:42:19.331Z,24.20
2023-02-28T04:44:50.482Z,24.20
2023-02-28T04:47:21.447Z,24.00
2023-02-28T04:49:52.215Z,24.70
2023-02-28T04:52:23.167Z,24.50
2023-02-28T04:54:53.952Z,24.90
2023-02-28T04:57:27.567Z,25.10
2023-02-28T05:00:01.332Z,23.60
2023-02-28T05:02:32.198Z,22.80
2023-02-28T05:05:03.077Z,22.60
2023-02-28T05:07:33.915Z,22.50
2023-02-28T05:10:06.424Z,22.30
2023-02-28T05:12:39.820Z,23.60
2023-02-28T05:15:16.279Z,23.30
2023-02-28T05:17:47.853Z,23.90
2023-02-28T05:20:18.886Z,23.70
2023-02-28T05:22:49.673Z,23.40
2023-02-28T05:25:23.074Z,22.90
2023-02-28T05:27:56.530Z,23.60
2023-02-28T05:30:27.330Z,23.30
2023-02-28T05:32:58.060Z,23.70
2023-02-28T05:35:29.522Z,24.00
2023-02-28T05:38:00.589Z,23.60
2023-02-28T05:40:31.320Z,25.10
2023-02-28T05:43:04.995Z,23.50
2023-02-28T05:45:35.795Z,24.30
2023-02-28T05:48:06.718Z,23.40
2023-02-28T05:50:37.517Z,22.50
2023-02-28T05:53:08.410Z,23.80
2023-02-28T05:55:39.736Z,22.60
2023-02-28T05:58:13.106Z,23.50
2023-02-28T06:00:43.933Z,24.20
2023-02-28T06:03:14.926Z,23.70
2023-02-28T06:05:45.753Z,23.60
2023-02-28T06:08:16.555Z,23.80
2023-02-28T06:10:47.257Z,23.00
2023-02-28T06:13:20.600Z,21.90
2023-02-28T06:15:51.304Z,22.90
2023-02-28T06:18:22.204Z,23.00
2023-02-28T06:20:56.947Z,22.50
2023-02-28T06:23:28.351Z,23.70
2023-02-28T06:25:59.541Z,23.30
2023-02-28T06:28:32.981Z,23.80
2023-02-28T06:31:03.731Z,24.40
2023-02-28T06:33:34.489Z,24.10
2023-02-28T06:36:05.366Z,23.60
2023-02-28T06:38:38.771Z,23.40
2023-02-28T06:41:10.496Z,22.80
2023-02-28T06:43:45.428Z,22.50
2023-02-28T06:46:17.883Z,22.50
2023-02-28T06:48:51.578Z,23.00
2023-02-28T06:51:25.379Z,23.20
2023-02-28T06:53:56.259Z,24.60
2023-02-28T06:56:26.970Z,24.00
2023-02-28T06:59:00.525Z,22.20
2023-02-28T07:01:32.932Z,23.30
2023-02-28T07:04:04.280Z,24.70
2023-02-28T07:06:35.337Z,25.00
2023-02-28T07:09:07.884Z,25.00
2023-02-28T07:11:38.912Z,24.80
2023-02-28T07:14:12.671Z,25.20
2023-02-28T07:16:43.394Z,25.50
2023-02-28T07:19:14.142Z,24.70
2023-02-28T07:21:44.873Z,24.10
2023-02-28T07:24:17.049Z,25.20
2023-02-28T07:26:47.758Z,23.70
2023-02-28T07:29:21.186Z,23.60
2023-02-28T07:31:54.151Z,24.60
2023-02-28T07:34:26.949Z,24.40
2023-02-28T07:36:58.119Z,22.20
2023-02-28T07:39:28.996Z,25.20
2023-02-28T07:42:00.692Z,24.30
2023-02-28T07:44:36.691Z,23.30
2023-02-28T07:47:07.877Z,23.80
2023-02-28T07:49:39.149Z,22.90
2023-02-28T07:52:12.272Z,21.70
2023-02-28T07:54:43.679Z,22.20
2023-02-28T07:57:14.602Z,21.80
2023-02-28T07:59:50.695Z,20.60
2023-02-28T08:02:22.543Z,20.20
2023-02-28T08:04:53.329Z,18.10
2023-02-28T08:07:24.207Z,18.00
2023-02-28T08:09:54.954Z,16.70
2023-02-28T08:12:25.721Z,17.10
2023-02-28T08:14:59.171Z,17.20
2023-02-28T08:17:29.947Z,16.70
2023-02-28T08:20:00.730Z,15.40
2023-02-28T08:22:31.460Z,16.40
2023-02-28T08:25:02.317Z,13.40
2023-02-28T08:27:33.102Z,14.50
2023-02-28T08:30:07.296Z,13.70
2023-02-28T08:32:38.312Z,12.60
2023-02-28T08:35:10.497Z,9.60
2023-02-28T08:37:41.316Z,9.50
2023-02-28T08:40:18.956Z,9.60
2023-02-28T08:42:50.504Z,11.90
2023-02-28T08:45:23.845Z,11.60
2023-02-28T08:47:55.126Z,10.30
2023-02-28T08:50:26.351Z,6.40
2023-02-28T08:52:58.223Z,7.70
2023-02-28T08:55:28.946Z,7.60
2023-02-28T08:57:59.925Z,5.70
2023-02-28T09:00:33.439Z,6.60
2023-02-28T09:03:04.248Z,7.80
2023-02-28T09:05:35.082Z,5.10
2023-02-28T09:08:05.869Z,5.50
2023-02-28T09:10:36.742Z,3.10
2023-02-28T09:13:10.513Z,2.00
2023-02-28T09:15:43.999Z,1.60
2023-02-28T09:18:15.018Z,1.50
2023-02-28T09:20:46.286Z,1.00
2023-02-28T09:23:18.385Z,2.40
2023-02-28T09:25:50.901Z,1.70
2023-02-28T09:28:22.414Z,1.00
2023-02-28T09:30:58.611Z,1.00
2023-02-28T09:33:30.092Z,1.00
2023-02-28T09:36:06.759Z,1.00
2023-02-28T09:38:37.842Z,1.00
2023-02-28T09:41:16.355Z,1.00
2023-02-28T09:43:56.598Z,1.00
2023-02-28T09:46:37.268Z,1.00
2023-02-28T09:49:15.257Z,1.00
2023-02-28T09:51:53.474Z,1.00
2023-02-28T09:54:26.808Z,1.00
2023-02-28T09:57:03.746Z,1.00
2023-02-28T09:59:52.881Z,1.00
2023-02-28T10:02:45.136Z,1.00
2023-02-28T10:05:18.229Z,1.00
2023-02-28T10:08:06.002Z,1.00
2023-02-28T10:10:42.525Z,1.00
2023-02-28T10:13:21.397Z,1.00
2023-02-28T10:15:56.799Z,1.00
2023-02-28T10:18:34.990Z,1.00
2023-02-28T10:21:07.498Z,1.00
2023-02-28T10:23:41.200Z,1.00
2023-02-28T10:26:18.947Z,1.00
2023-02-28T10:28:50.004Z,1.00
2023-02-28T10:31:26.009Z,1.00
2023-02-28T10:33:59.773Z,1.00
2023-02-28T10:36:30.855Z,1.00
2023-02-28T10:39:02.877Z,1.00
2023-02-28T10:41:37.229Z,1.00
2023-02-28T10:44:21.862Z,1.00
2023-02-28T10:46:54.262Z,1.00
2023-02-28T10:49:30.123Z,1.00
2023-02-28T10:52:05.863Z,1.00
2023-02-28T10:54:39.341Z,1.00
2023-02-28T10:57:22.291Z,1.00
2023-02-28T10:59:56.195Z,1.00
2023-02-28T11:02:37.140Z,1.00
2023-02-28T11:05:33.522Z,1.00
2023-02-28T11:08:10.048Z,1.00
2023-02-28T11:10:41.128Z,1.00
2023-02-28T11:13:22.017Z,1.00
2023-02-28T11:16:20.520Z,1.00
2023-02-28T11:19:22.741Z,1.00
2023-02-28T11:22:01.013Z,1.00
2023-02-28T11:24:37.165Z,1.00
2023-02-28T11:27:11.652Z,1.00
2023-02-28T11:29:51.219Z,1.00
2023-02-28T11:32:24.273Z,1.00
2023-02-28T11:35:06.371Z,1.00
2023-02-28T11:37:41.183Z,1.00
2023-02-28T11:40:18.295Z,1.00
2023-02-28T11:42:59.890Z,1.00
2023-02-28T11:45:46.465Z,1.00
2023-02-28T11:48:24.369Z,1.00
2023-02-28T11:51:04.310Z,1.00
2023-02-28T11:53:59.320Z,1.00
2023-02-28T11:56:37.102Z,1.00
2023-02-28T11:59:30.117Z,1.00
2023-02-28T12:02:26.552Z,1.00
2023-02-28T12:05:20.960Z,1.00
2023-02-28T12:08:02.204Z,1.00
2023-02-28T12:11:10.180Z,1.00
2023-02-28T12:13:52.014Z,1.00
2023-02-28T12:16:45.840Z,1.00
2023-02-28T12:19:23.299Z,1.00
2023-02-28T12:22:27.498Z,1.00
2023-02-28T12:25:27.935Z,1.00
2023-02-28T12:28:01.705Z,1.00
2023-02-28T12:30:37.037Z,1.00
2023-02-28T12:33:10.169Z,1.00
2023-02-28T12:35:46.816Z,1.00
2023-02-28T12:38:22.960Z,1.00
2023-02-28T12:40:58.521Z,1.00
2023-02-28T12:43:37.836Z,1.00
2023-02-28T12:46:14.691Z,1.00
2023-02-28T12:48:50.356Z,1.00
2023-02-28T12:51:22.353Z,1.00
2023-02-28T12:54:01.618Z,1.00
2023-02-28T12:56:42.491Z,1.00
2023-02-28T12:59:22.896Z,1.00
2023-02-28T13:02:10.284Z,1.00
2023-02-28T13:04:59.439Z,1.00
2023-02-28T13:08:00.169Z,1.00
2023-02-28T13:10:43.496Z,1.00
2023-02-28T13:13:22.612Z,1.00
2023-02-28T13:16:08.678Z,1.00
2023-02-28T13:18:42.104Z,1.00
2023-02-28T13:21:25.522Z,1.00
2023-02-28T13:24:07.151Z,1.00
2023-02-28T13:27:14.600Z,1.00
2023-02-28T13:29:46.918Z,1.00
2023-02-28T13:32:44.168Z,1.00
2023-02-28T13:38:40.187Z,1.00
2023-02-28T13:41:41.395Z,1.00
2023-02-28T13:44:14.327Z,1.00
2023-02-28T13:47:15.606Z,1.00
2023-02-28T13:49:49.166Z,1.00
2023-02-28T13:55:37.605Z,1.00
2023-02-28T13:58:20.374Z,1.00
2023-02-28T14:01:11.341Z,1.00
2023-02-28T14:04:13.494Z,1.00
2023-02-28T14:06:52.464Z,1.00
2023-02-28T14:09:28.586Z,1.00
2023-02-28T14:11:59.948Z,1.00
2023-02-28T14:15:06.914Z,1.00
2023-02-28T14:17:38.000Z,1.00
2023-02-28T14:20:17.228Z,1.00
2023-02-28T14:22:59.826Z,1.00
2023-02-28T14:25:39.311Z,1.00
2023-02-28T14:28:21.975Z,1.00
2023-02-28T14:31:05.065Z,1.00
2023-02-28T14:33:46.850Z,1.00
2023-02-28T14:36:23.933Z,1.00
2023-02-28T14:39:01.557Z,1.00
2023-02-28T14:41:36.597Z,1.00
2023-02-28T14:44:19.217Z,1.00
2023-02-28T14:46:55.924Z,1.00
2023-02-28T14:49:31.245Z,1.00
2023-02-28T14:52:16.002Z,1.00
2023-02-28T14:54:55.068Z,1.00
2023-02-28T14:57:28.353Z,1.00
2023-02-28T15:00:04.906Z,1.00
2023-02-28T15:02:39.107Z,1.00
2023-02-28T15:05:27.045Z,1.00
2023-02-28T15:08:14.876Z,1.00
2023-02-28T15:10:54.541Z,1.00
2023-02-28T15:13:26.168Z,1.00
2023-02-28T15:16:03.096Z,1.00
2023-02-28T15:18:42.637Z,1.00
2023-02-28T15:21:18.712Z,1.00
2023-02-28T15:23:53.622Z,1.00
2023-02-28T15:26:33.361Z,1.00
2023-02-28T15:29:07.319Z,1.00
2023-02-28T15:31:57.330Z,1.00
2023-02-28T15:34:43.403Z,1.00
2023-02-28T15:37:41.290Z,1.00
2023-02-28T15:40:19.036Z,1.00
2023-02-28T15:43:08.906Z,1.00
2023-02-28T15:45:44.939Z,1.00
2023-02-28T15:48:23.636Z,1.00
2023-02-28T15:50:56.724Z,1.00
2023-02-28T15:53:32.286Z,1.00
2023-02-28T15:56:06.167Z,1.00
2023-02-28T15:58:41.503Z,1.00
2023-02-28T16:01:24.231Z,1.00
2023-02-28T16:03:58.744Z,1.00
2023-02-28T16:06:43.039Z,1.00
2023-02-28T16:09:16.279Z,1.00
2023-02-28T16:11:50.551Z,1.00
2023-02-28T16:14:27.980Z,1.00
2023-02-28T16:17:05.837Z,1.00
2023-02-28T16:19:36.796Z,1.00
2023-02-28T16:22:07.910Z,1.00
2023-02-28T16:24:39.808Z,1.00
2023-02-28T16:27:18.606Z,1.00
2023-02-28T16:29:52.892Z,1.00
2023-02-28T16:32:23.799Z,1.00
2023-02-28T16:34:54.871Z,1.00
2023-02-28T16:37:25.605Z,1.00
2023-02-28T16:39:56.354Z,1.00
2023-02-28T16:42:31.967Z,1.00
2023-02-28T16:45:05.329Z,1.00
2023-02-28T16:47:36.398Z,1.00
2023-02-28T16:50:13.835Z,1.00
2023-02-28T16:52:45.135Z,1.00
2023-02-28T16:55:16.576Z,1.00
2023-02-28T16:57:48.487Z,1.00
2023-02-28T17:00:22.890Z,1.00
2023-02-28T17:02:53.743Z,1.00
2023-02-28T17:05:25.869Z,1.00
2023-02-28T17:07:58.360Z,1.00
2023-02-28T17:10:30.138Z,1.00
2023-02-28T17:13:14.173Z,1.00
2023-02-28T17:15:49.826Z,1.00
2023-02-28T17:18:22.593Z,1.00
2023-02-28T17:20:53.508Z,1.00
2023-02-28T17:23:24.242Z,1.00
2023-02-28T17:25:58.198Z,1.00
2023-02-28T17:28:29.129Z,1.00
2023-02-28T17:31:02.563Z,1.00
2023-02-28T17:33:33.404Z,1.00
2023-02-28T17:36:04.156Z,1.00
2023-02-28T17:38:35.275Z,1.00
2023-02-28T17:41:06.063Z,1.00
2023-02-28T17:43:36.964Z,1.00
2023-02-28T17:46:21.303Z,1.00
2023-02-28T17:48:52.738Z,1.00
2023-02-28T17:51:25.983Z,1.00
2023-02-28T17:53:56.859Z,1.00
2023-02-28T17:56:29.509Z,1.00
2023-02-28T17:59:00.857Z,1.00
2023-02-28T18:01:34.846Z,1.00
2023-02-28T18:04:05.842Z,1.00
2023-02-28T18:06:47.038Z,1.00
2023-02-28T18:09:18.922Z,1.00
2023-02-28T18:11:49.952Z,1.00
2023-02-28T18:14:23.717Z,1.00
2023-02-28T18:16:58.065Z,1.00
2023-02-28T18:19:28.921Z,1.00
2023-02-28T18:21:59.764Z,1.00
2023-02-28T18:24:30.581Z,1.00
2023-02-28T18:27:01.507Z,1.00
2023-02-28T18:29:33.685Z,1.00
2023-02-28T18:32:07.706Z,1.00
2023-02-28T18:34:38.515Z,1.00
2023-02-28T18:37:11.792Z,1.00
2023-02-28T18:39:42.719Z,1.00
2023-02-28T18:42:13.484Z,1.00
2023-02-28T18:44:44.486Z,1.00
2023-02-28T18:47:17.851Z,1.00
2023-02-28T18:49:48.652Z,1.00
2023-02-28T18:52:19.617Z,1.00
2023-02-28T18:54:50.455Z,1.00
2023-02-28T18:57:21.468Z,1.00
2023-02-28T18:59:52.674Z,1.00
2023-02-28T19:02:27.096Z,1.00
2023-02-28T19:04:58.717Z,1.00
2023-02-28T19:07:29.899Z,1.00
2023-02-28T19:10:01.312Z,1.00
2023-02-28T19:12:32.388Z,1.00
2023-02-28T19:15:03.162Z,1.00
2023-02-28T19:17:37.116Z,1.00
2023-02-28T19:20:09.748Z,1.10
2023-02-28T19:22:41.221Z,1.00
2023-02-28T19:25:12.751Z,1.50
2023-02-28T19:27:43.724Z,1.00
2023-02-28T19:30:15.635Z,1.50
2023-02-28T19:32:50.021Z,1.30
2023-02-28T19:35:20.962Z,1.50
2023-02-28T19:37:52.735Z,1.00
2023-02-28T19:40:23.773Z,1.50
2023-02-28T19:42:54.578Z,2.00
2023-02-28T19:45:25.418Z,1.60
2023-02-28T19:47:59.091Z,1.50
2023-02-28T19:50:30.190Z,2.40
2023-02-28T19:53:02.493Z,2.70
2023-02-28T19:55:33.347Z,2.10
2023-02-28T19:58:04.085Z,2.40
2023-02-28T20:00:35.089Z,2.30
2023-02-28T20:03:08.465Z,2.60
2023-02-28T20:05:39.299Z,3.30
2023-02-28T20:08:13.061Z,3.10
2023-02-28T20:10:44.015Z,3.50
2023-02-28T20:13:16.690Z,4.00
2023-02-28T20:15:47.679Z,4.10
2023-02-28T20:18:21.362Z,4.30
2023-02-28T20:20:52.364Z,4.30
2023-02-28T20:23:23.575Z,4.00
2023-02-28T20:25:54.584Z,4.40
2023-02-28T20:28:25.486Z,5.00
2023-02-28T20:30:56.756Z,4.90
2023-02-28T20:33:30.384Z,5.00
2023-02-28T20:36:02.292Z,5.40
2023-02-28T20:38:33.202Z,5.50
2023-02-28T20:41:05.065Z,5.60
2023-02-28T20:43:35.935Z,5.40
2023-02-28T20:46:07.281Z,5.80
2023-02-28T20:48:41.879Z,5.40
2023-02-28T20:51:13.753Z,6.10
2023-02-28T20:53:45.297Z,6.10
2023-02-28T20:56:18.414Z,6.60
2023-02-28T20:58:50.865Z,6.80
2023-02-28T21:01:26.177Z,6.60
2023-02-28T21:04:02.042Z,6.70
2023-02-28T21:06:43.015Z,7.00
2023-02-28T21:09:15.908Z,6.60
2023-02-28T21:11:48.635Z,6.70
2023-02-28T21:14:20.521Z,6.70
2023-02-28T21:16:51.535Z,6.70
2023-02-28T21:19:25.135Z,7.00
2023-02-28T21:21:58.575Z,7.80
2023-02-28T21:24:29.409Z,7.70
2023-02-28T21:27:02.121Z,7.60
2023-02-28T21:29:33.047Z,7.80
2023-02-28T21:32:03.880Z,8.90
2023-02-28T21:34:37.238Z,8.20
2023-02-28T21:37:08.623Z,8.40
2023-02-28T21:39:40.763Z,8.70
2023-02-28T21:42:11.696Z,9.00
2023-02-28T21:44:42.442Z,9.50
2023-02-28T21:47:13.352Z,9.40
2023-02-28T21:49:47.165Z,9.40
2023-02-28T21:52:24.253Z,9.40
2023-02-28T21:54:55.289Z,9.40
2023-02-28T21:57:26.031Z,9.40
2023-02-28T21:59:56.980Z,9.80
2023-02-28T22:02:30.169Z,9.70
2023-02-28T22:05:03.677Z,10.10
2023-02-28T22:07:34.590Z,10.70
2023-02-28T22:10:05.515Z,9.90
2023-02-28T22:12:36.270Z,10.30
2023-02-28T22:15:11.273Z,10.80
2023-02-28T22:17:42.350Z,10.20
2023-02-28T22:20:16.606Z,10.70
2023-02-28T22:22:47.800Z,10.80
2023-02-28T22:25:19.062Z,10.90
2023-02-28T22:27:55.855Z,11.20
2023-02-28T22:30:26.724Z,11.80
2023-02-28T22:32:57.478Z,10.90
2023-02-28T22:35:31.139Z,11.50
2023-02-28T22:38:02.011Z,10.90
2023-02-28T22:40:34.802Z,10.30
2023-02-28T22:43:06.287Z,10.00
2023-02-28T22:45:39.265Z,10.40
2023-02-28T22:48:11.908Z,10.20
2023-02-28T22:50:46.422Z,11.30
2023-02-28T22:53:24.604Z,9.90
2023-02-28T22:55:58.041Z,11.20
2023-02-28T22:58:29.035Z,11.20
2023-02-28T23:01:07.312Z,11.60
2023-02-28T23:03:38.719Z,11.10
2023-02-28T23:06:19.238Z,11.20
2023-02-28T23:08:50.385Z,12.20
2023-02-28T23:11:23.363Z,12.10
2023-02-28T23:14:00.947Z,11.50
2023-02-28T23:16:37.405Z,11.90
2023-02-28T23:19:11.552Z,12.20
2023-02-28T23:21:45.685Z,11.80
2023-02-28T23:24:18.951Z,12.90
2023-02-28T23:26:51.582Z,12.30
2023-02-28T23:29:25.051Z,13.10
2023-02-28T23:32:01.694Z,13.00
2023-02-28T23:34:34.386Z,13.60
2023-02-28T23:37:07.724Z,13.40
2023-02-28T23:39:38.668Z,13.60
2023-02-28T23:42:09.498Z,12.90
2023-02-28T23:44:40.531Z,13.30
2023-02-28T23:47:13.876Z,12.90
2023-02-28T23:49:44.969Z,12.50
2023-02-28T23:52:18.336Z,13.00
2023-02-28T23:54:49.445Z,13.50
2023-02-28T23:57:20.319Z,13.40
2023-02-28T23:59:51.257Z,12.80
